18JAN22 #L-band

00:28:27 18-01-22 UTC AES:AE05B1 GES:C1 2 .38878S ! 20 D Boeing KC-135R United States Air Force

     INI/ID38878S,LAGR844,1PR067L1U018/MR0,1/AFEGUN,EGUN/TD180205,02058B66

00:44:29 18-01-22 UTC AES:AE05B1 GES:C1 2 .38878S ! 14 N Boeing KC-135R United States Air Force

     FTX/ID38878S,LAGR844,1PR067L1U018/MR2,/FXCALLSIGN SHOWING LAG844 IN ACARS INSTEAD OF LAGR844.   CONFIRM RECEIPT OF FLIGHT PLAN – 603RD FLIGHT MANAGEMENT.786F

00:49:27 18-01-22 UTC AES:AE05B1 GES:C1 2 .38878S ! 14 P Boeing KC-135R United States Air Force

     FTX/ID38878S,LAGR844,1PR067L1U018/MR3,/FXNEED TO CORRECT CALL SIGN IN ACARS FOR FLT PLAN. -MAJ MODELL072A

02:06:27 18-01-22 UTC AES:AE0669 GES:C1 2 .23540S ! 20 D Boeing KC-135R United States Air Force

     INI/ID23540S,LAGR834,1PR055L1U018/MR0,1/AFEGUN,EGUN/TD180350,035033E8

06:14:27 18-01-22 UTC AES:AE05A8 GES:C1 2 .23551S ! 20 D Boeing KC-135R United States Air Force

     INI/ID23551S,LAGR861,1PR010L1U018/MR0,1/AFEGUN,EGUN/TD180730,07305893

14:34:30 18-01-22 UTC AES:AE0669 GES:C1 2 .23540S ! 20 P Boeing KC-135R United States Air Force

     INI/ID23540S,QID22,1UN95TB22018/MR0,1/AFEGUN,EGUN/TD181622,1622BA86

06:01:27 18-01-22 UTC AES:AE0237 GES:C1 2 .10315S ! 20 D Boeing KC-135R United States Air Force

     INI/ID10315S,QID24,1UN95TB24018/MR0,1/AFEGUN,LEMO/TD180700,07008265

04:07:39 18-01-22 UTC AES:896C30 GES:C5 2 .00406A ! H1 K Boeing C-17A Globemaster III United Arab Emirates Air Force

     – #MDINI/ID00406A,SUHL51,ZZZ123456789/MR0,01FB1

01:47:27 18-01-22 UTC AES:AE123C GES:44 2 .44131A ! H1 T Boeing C-17A Globemaster III United States Air Force

     – #MDINI/ID44131A,MSNSPAR,MSNSPARE1017/MR4,0/AFKWRI,KWRI/TD170502,0502B0E5

05:08:27 18-01-22 UTC AES:AE123C GES:44 2 .44131A ! H1 D Boeing C-17A Globemaster III United States Air Force

     – #MDFTX/ID44131A,RCH696,AAM6909Y1017/MR0,/FXWHENEVER YOU GET TIME CAN YOU SEND ME YOUR TOTAL CARGO WEIGHT AND PAX LOAD TO ETAR1187

10:10:09 18-01-22 UTC AES:480C1A GES:90 2 ….V11 ! 41 C Gulfstream Aerospace GIV Royal Netherlands Air Force

     MSG0303qt9txtxq8+>>wo+qt9,2wL,((Wtx{tx`
     1d08{Wo&1>
     T0{WStt
     1!TWm!wLWL0TW10XL&W10d
     1!TWm!wL{W!-xDJ

10:35:24 18-01-22 UTC AES:3B75A7 GES:C5 2 .F-UJCI ! C1 D Airbus Phenix 243MRTT French Air Force

     .SINGMXS 181035
     AGM
     AN .F-UJCI/GL EUA2
     –  / 
     FT 18/06:00 RTD 
     TAF COR FTTJ 180500Z 1806/1912 03010KT 1500 DU NSC
          BECMG 1807/1809 6000 NSW
          TEMPO 1902/1908 3000 DU=
     FT 18/06:00 RTD 
     TAF DRRN 180500Z 1806/1912 08015KT 8000 NSC
          TEMPO 1806/1808 4000 DU
          TEMPO 1808/1812 08025KT 2500 BLDU
          BECMG 1816/1818 06005KT
          TEMPO 1818/1820 4000 DU=
     FT 18/06:00 RTD 
     TAF DFFD 180500Z 1806/1912 06010KT 8000 NSC
          TEMPO 1806/1810 3500 HZ
          TEMPO 1817/1821 4000 HZ=
     SA 18/10:00     
     METAR FTTJ 181000Z 02015KT 020V080 6000 NSC 25/M03 Q1020 NOSIG=
     SA 18/10:00 RTD 
     DRRN 181000Z 09016KT 7000 NSC 24/M07 Q1020 NOSIG=
     SA 18/10:00     
     METAR DFFD 181000Z 07015KT CAVOK 24/M04 Q1019 NOSIG=

15:41:26 18-01-22 UTC AES:AE05A5 GES:44 2 .23508S ! 20 G Boeing KC-135R United States Air Force

     INI/ID23508S,TOPCAT7,DUN56TB02018/MR1,3/AFKWRI,KWRI/TD181620,1620AFE0

19:32:44 18-01-22 UTC AES:AE059B GES:44 2 .00323S ! 14 G Boeing KC-135R United States Air Force

     FTX/ID00323S,RCH139,QAN603141013/MR4,/FXAPPROACHING ETP. I REVIEWED THE EGPK AND KPSM WX AND NOTAMS. ONLY CHANGES SINCE WE PUBLISHED YOUR PAPERS ARE EXPECT KPSM WINDS 300 AT 19 GUST 29. FUEL LOOKS GOOD. FM JIM2C8A

Spread the word. Share this post!

Leave Comment

Het e-mailadres wordt niet gepubliceerd.